Time;durP1;ratioP1;P1;durP2;ratioP2;P2;SDS_P1;SDS_P2;PMS_P1;PMS_P2;Temp;Humidity;BMP_temperature;BMP_pressure;BME280_temperature;BME280_humidity;BME280_pressure;Samples;Min_cycle;Max_cycle;Signal;HPM_P1;HPM_P2
2022/12/29 00:01:15;;;;;;;;;1.00;0.00;;;;;;;;5105327;27;61775;-77
2022/12/29 00:03:40;;;;;;;;;1.00;0.00;;;;;;;;5105832;27;61890;-77
2022/12/29 00:06:05;;;;;;;;;0.00;0.00;;;;;;;;5105634;27;61841;-77
2022/12/29 00:08:40;;;;;;;;;0.75;0.75;;;;;;;;5104735;27;62142;-77
2022/12/29 00:11:09;;;;;;;;;0.00;0.00;;;;;;;;5103565;27;63783;-77
2022/12/29 00:16:19;;;;;;;;;0.00;0.00;;;;;;;;5105657;27;61846;-76
2022/12/29 00:18:44;;;;;;;;;1.00;0.00;;;;;;;;5105615;27;61737;-76
2022/12/29 00:35:24;;;;;;;;;3.00;1.00;;;;;;;;5061977;28;61851;-77
2022/12/29 00:46:02;;;;;;;;;0.00;0.00;;;;;;;;5061785;28;61865;-76
2022/12/29 00:51:11;;;;;;;;;0.00;0.00;;;;;;;;5062102;28;61972;-76
2022/12/29 00:53:36;;;;;;;;;1.00;0.00;;;;;;;;5043854;28;63490;-76
2022/12/29 00:56:01;;;;;;;;;0.75;0.00;;;;;;;;5061499;28;61758;-76
2022/12/29 00:58:30;;;;;;;;;0.00;0.00;;;;;;;;5061881;28;61762;-76
2022/12/29 01:01:05;;;;;;;;;0.00;0.00;;;;;;;;5062092;28;61771;-76
2022/12/29 01:03:31;;;;;;;;;0.00;0.00;;;;;;;;5075381;27;61915;-76
2022/12/29 01:05:59;;;;;;;;;0.00;0.00;;;;;;;;5103315;27;62109;-76
2022/12/29 01:08:26;;;;;;;;;0.00;0.00;;;;;;;;5102303;27;62023;-77
2022/12/29 01:11:02;;;;;;;;;0.00;0.00;;;;;;;;5103309;27;61986;-77
2022/12/29 01:13:27;;;;;;;;;3.50;0.00;;;;;;;;5103963;27;62790;-76
2022/12/29 01:15:53;;;;;;;;;0.00;0.00;;;;;;;;5104571;27;61897;-77
2022/12/29 01:18:18;;;;;;;;;0.50;0.00;;;;;;;;5104571;27;61916;-76
2022/12/29 01:20:44;;;;;;;;;0.00;0.00;;;;;;;;5104647;27;62003;-76
2022/12/29 01:23:09;;;;;;;;;0.75;0.00;;;;;;;;5103974;27;62642;-76
2022/12/29 01:25:34;;;;;;;;;0.00;0.00;;;;;;;;5104070;27;62169;-77
2022/12/29 01:27:59;;;;;;;;;0.00;0.00;;;;;;;;5104603;27;61947;-76
2022/12/29 01:30:25;;;;;;;;;0.00;0.00;;;;;;;;5103368;27;62221;-77
2022/12/29 01:32:50;;;;;;;;;0.00;0.00;;;;;;;;5103809;27;61820;-77
2022/12/29 01:35:15;;;;;;;;;2.00;0.00;;;;;;;;5102718;27;62034;-77
2022/12/29 01:37:40;;;;;;;;;0.00;0.00;;;;;;;;5104517;27;61938;-77
2022/12/29 01:40:06;;;;;;;;;0.00;0.00;;;;;;;;5104149;27;61892;-77
2022/12/29 01:42:32;;;;;;;;;0.00;0.00;;;;;;;;5103684;27;61831;-77
2022/12/29 01:44:59;;;;;;;;;0.25;0.25;;;;;;;;5104191;27;61757;-77
2022/12/29 01:47:30;;;;;;;;;0.75;0.00;;;;;;;;5104183;27;61709;-77
2022/12/29 01:49:57;;;;;;;;;0.00;0.00;;;;;;;;5104020;27;61965;-77
2022/12/29 01:52:24;;;;;;;;;0.00;0.00;;;;;;;;5102023;27;64806;-77
2022/12/29 01:54:52;;;;;;;;;0.00;0.00;;;;;;;;5102338;27;61878;-77
2022/12/29 01:57:20;;;;;;;;;0.00;0.00;;;;;;;;5102568;27;61744;-77
2022/12/29 01:59:50;;;;;;;;;0.00;0.00;;;;;;;;5104088;27;61934;-77
2022/12/29 02:02:15;;;;;;;;;0.00;0.00;;;;;;;;5103297;27;61668;-78
2022/12/29 02:04:45;;;;;;;;;1.00;0.00;;;;;;;;5103728;27;61773;-77
2022/12/29 02:07:15;;;;;;;;;0.00;0.00;;;;;;;;5103092;27;61989;-77
2022/12/29 02:09:41;;;;;;;;;0.00;0.00;;;;;;;;5103504;27;61812;-78
2022/12/29 02:12:07;;;;;;;;;0.00;0.00;;;;;;;;5103149;27;61906;-78
2022/12/29 02:14:33;;;;;;;;;0.00;0.00;;;;;;;;5102280;27;61873;-78
2022/12/29 02:17:17;;;;;;;;;0.00;0.00;;;;;;;;5103757;27;62148;-77
2022/12/29 02:19:42;;;;;;;;;0.00;0.00;;;;;;;;5103537;27;61656;-77
2022/12/29 02:22:30;;;;;;;;;0.00;0.00;;;;;;;;5103176;27;63002;-77
2022/12/29 02:25:01;;;;;;;;;0.00;0.00;;;;;;;;5103203;27;61919;-77
2022/12/29 02:27:45;;;;;;;;;0.00;0.00;;;;;;;;5102151;27;61739;-77
2022/12/29 02:30:36;;;;;;;;;0.00;0.00;;;;;;;;5102366;27;61789;-78
2022/12/29 02:33:20;;;;;;;;;0.00;0.00;;;;;;;;5101205;27;62676;-77
2022/12/29 02:36:00;;;;;;;;;0.50;0.00;;;;;;;;5103601;27;61958;-77
2022/12/29 02:38:35;;;;;;;;;1.00;0.00;;;;;;;;5103409;27;62040;-77
2022/12/29 02:41:07;;;;;;;;;0.00;0.00;;;;;;;;5103325;27;62021;-77
2022/12/29 02:43:36;;;;;;;;;0.25;0.00;;;;;;;;5102886;27;62791;-78
2022/12/29 02:46:05;;;;;;;;;0.00;0.00;;;;;;;;5103329;27;61787;-77
2022/12/29 02:48:39;;;;;;;;;0.00;0.00;;;;;;;;5103292;27;61835;-77
2022/12/29 02:51:08;;;;;;;;;1.25;0.00;;;;;;;;5102132;27;62130;-78
2022/12/29 02:56:18;;;;;;;;;0.00;0.00;;;;;;;;5106742;27;61850;-78
2022/12/29 02:58:43;;;;;;;;;2.00;0.00;;;;;;;;5106922;27;61737;-77
2022/12/29 03:01:19;;;;;;;;;0.00;0.00;;;;;;;;5105852;27;61751;-77
2022/12/29 03:03:53;;;;;;;;;0.00;0.00;;;;;;;;5105911;27;61875;-78
2022/12/29 03:06:25;;;;;;;;;1.00;0.00;;;;;;;;5106762;27;61900;-78
2022/12/29 03:09:00;;;;;;;;;0.00;0.00;;;;;;;;5105980;27;62062;-78
2022/12/29 03:17:10;;;;;;;;;3.00;0.00;;;;;;;;5106235;27;61713;-78
2022/12/29 03:19:37;;;;;;;;;0.00;0.00;;;;;;;;5104835;27;63044;-78
2022/12/29 03:24:54;;;;;;;;;6.00;0.00;;;;;;;;5105429;27;61792;-78
2022/12/29 03:27:21;;;;;;;;;1.00;0.00;;;;;;;;5105001;27;62009;-78
2022/12/29 03:29:52;;;;;;;;;0.00;0.00;;;;;;;;5106360;27;61632;-78
2022/12/29 03:32:18;;;;;;;;;1.25;0.00;;;;;;;;5104728;27;62188;-78
2022/12/29 03:34:44;;;;;;;;;0.00;0.00;;;;;;;;5105838;27;62024;-78
2022/12/29 03:37:11;;;;;;;;;0.00;0.00;;;;;;;;5106415;27;61927;-78
2022/12/29 03:39:36;;;;;;;;;0.25;0.00;;;;;;;;5104523;27;61807;-78
2022/12/29 03:42:04;;;;;;;;;0.50;0.00;;;;;;;;5106423;27;61980;-78
2022/12/29 03:44:37;;;;;;;;;3.00;0.00;;;;;;;;5105523;27;62067;-78
2022/12/29 03:47:03;;;;;;;;;1.00;0.00;;;;;;;;5104619;27;61882;-78
2022/12/29 03:49:28;;;;;;;;;2.00;0.00;;;;;;;;5105885;27;61861;-78
2022/12/29 03:51:54;;;;;;;;;0.00;0.00;;;;;;;;5104975;27;62151;-78
2022/12/29 03:54:19;;;;;;;;;3.25;0.75;;;;;;;;5103730;27;63747;-78
2022/12/29 03:56:44;;;;;;;;;1.75;0.00;;;;;;;;5105571;27;61640;-78
2022/12/29 03:59:09;;;;;;;;;0.00;0.00;;;;;;;;5105887;27;61698;-78
2022/12/29 04:01:35;;;;;;;;;1.00;0.00;;;;;;;;5105961;27;62138;-78
2022/12/29 04:04:00;;;;;;;;;0.00;0.00;;;;;;;;5105386;27;61966;-78
2022/12/29 04:06:25;;;;;;;;;0.75;0.00;;;;;;;;5104477;27;61967;-78
2022/12/29 04:08:50;;;;;;;;;0.00;0.00;;;;;;;;5104688;27;61658;-78
2022/12/29 04:11:16;;;;;;;;;0.00;0.00;;;;;;;;5105787;27;62025;-78
2022/12/29 04:13:41;;;;;;;;;1.00;0.00;;;;;;;;5105087;27;61881;-78
2022/12/29 04:16:07;;;;;;;;;3.00;0.00;;;;;;;;5105488;27;61742;-78
2022/12/29 04:18:32;;;;;;;;;0.25;0.25;;;;;;;;5105651;27;62333;-78
2022/12/29 04:21:02;;;;;;;;;2.00;0.00;;;;;;;;5105675;27;61831;-78
2022/12/29 04:23:28;;;;;;;;;1.00;0.00;;;;;;;;5104892;27;61905;-78
2022/12/29 04:25:53;;;;;;;;;1.50;0.00;;;;;;;;5105208;27;62433;-78
2022/12/29 04:28:19;;;;;;;;;0.00;0.00;;;;;;;;5105467;27;61694;-78
2022/12/29 04:30:44;;;;;;;;;1.75;0.00;;;;;;;;5105390;27;61991;-78
2022/12/29 04:33:09;;;;;;;;;0.00;0.00;;;;;;;;5104713;27;62831;-78
2022/12/29 04:35:34;;;;;;;;;1.00;0.00;;;;;;;;5105312;27;61700;-78
2022/12/29 04:38:00;;;;;;;;;0.00;0.00;;;;;;;;5105592;27;62002;-78
2022/12/29 04:40:25;;;;;;;;;0.00;0.00;;;;;;;;5105299;27;62160;-78
2022/12/29 04:42:50;;;;;;;;;0.25;0.00;;;;;;;;5104552;27;61952;-78
2022/12/29 04:45:16;;;;;;;;;0.00;0.00;;;;;;;;5104981;27;61709;-78
2022/12/29 04:47:41;;;;;;;;;0.50;0.00;;;;;;;;5103756;27;61713;-78
2022/12/29 04:50:07;;;;;;;;;0.00;0.00;;;;;;;;5105090;27;61999;-78
2022/12/29 04:52:32;;;;;;;;;0.75;0.00;;;;;;;;5104501;27;61798;-78
2022/12/29 04:54:57;;;;;;;;;0.00;0.00;;;;;;;;5104297;27;62031;-78
2022/12/29 04:57:22;;;;;;;;;1.50;0.00;;;;;;;;5103573;27;62025;-78
2022/12/29 04:59:48;;;;;;;;;1.75;0.00;;;;;;;;5104962;27;61745;-78
2022/12/29 05:02:13;;;;;;;;;0.50;0.00;;;;;;;;5104332;27;62907;-78
2022/12/29 05:04:38;;;;;;;;;0.00;0.00;;;;;;;;5104942;27;61756;-78
2022/12/29 05:07:03;;;;;;;;;0.00;0.00;;;;;;;;5103755;27;61703;-78
2022/12/29 05:09:29;;;;;;;;;0.00;0.00;;;;;;;;5103114;27;62160;-78
2022/12/29 05:11:55;;;;;;;;;1.75;0.00;;;;;;;;5104211;27;62533;-78
2022/12/29 05:14:20;;;;;;;;;0.00;0.00;;;;;;;;5104383;27;61993;-78
2022/12/29 05:16:45;;;;;;;;;0.00;0.00;;;;;;;;5104278;27;61710;-77
2022/12/29 05:19:11;;;;;;;;;2.25;0.75;;;;;;;;5104727;27;61935;-78
2022/12/29 05:21:36;;;;;;;;;0.00;0.00;;;;;;;;5102512;27;64999;-78
2022/12/29 05:24:01;;;;;;;;;1.50;0.00;;;;;;;;5102969;27;61914;-78
2022/12/29 05:26:26;;;;;;;;;0.00;0.00;;;;;;;;5104544;27;61844;-78
2022/12/29 05:28:52;;;;;;;;;0.25;0.00;;;;;;;;5104382;27;61891;-78
2022/12/29 05:31:17;;;;;;;;;2.75;0.00;;;;;;;;5103838;27;61768;-78
2022/12/29 05:33:42;;;;;;;;;0.00;0.00;;;;;;;;5102841;27;61717;-78
2022/12/29 05:36:08;;;;;;;;;0.50;0.25;;;;;;;;5103041;27;61720;-78
2022/12/29 05:38:33;;;;;;;;;0.00;0.00;;;;;;;;5104619;27;61717;-78
2022/12/29 05:40:59;;;;;;;;;0.00;0.00;;;;;;;;5101999;27;63705;-78
2022/12/29 05:43:24;;;;;;;;;0.00;0.00;;;;;;;;5104072;27;61820;-78
2022/12/29 05:45:49;;;;;;;;;0.25;0.00;;;;;;;;5104271;27;61808;-79
2022/12/29 05:48:15;;;;;;;;;1.00;0.00;;;;;;;;5104359;27;61892;-78
2022/12/29 05:50:40;;;;;;;;;1.75;0.00;;;;;;;;5102026;27;63642;-78
2022/12/29 05:53:05;;;;;;;;;0.00;0.00;;;;;;;;5103867;27;61745;-78
2022/12/29 05:55:30;;;;;;;;;1.00;0.00;;;;;;;;5103841;27;61836;-78
2022/12/29 05:57:56;;;;;;;;;0.25;0.25;;;;;;;;5102655;27;62266;-78
2022/12/29 06:00:21;;;;;;;;;0.75;0.75;;;;;;;;5103401;27;61976;-78
2022/12/29 06:02:46;;;;;;;;;0.00;0.00;;;;;;;;5102387;27;62034;-78
2022/12/29 06:05:12;;;;;;;;;0.00;0.00;;;;;;;;5102655;27;62157;-78
2022/12/29 06:07:37;;;;;;;;;0.00;0.00;;;;;;;;5101686;27;61775;-78
2022/12/29 06:10:03;;;;;;;;;1.00;0.00;;;;;;;;5101430;27;63655;-78
2022/12/29 06:12:28;;;;;;;;;0.00;0.00;;;;;;;;5103671;27;61825;-78
2022/12/29 06:14:54;;;;;;;;;0.00;0.00;;;;;;;;5103784;27;62020;-78
2022/12/29 06:17:19;;;;;;;;;0.00;0.00;;;;;;;;5104130;27;61833;-79
2022/12/29 06:19:44;;;;;;;;;0.00;0.00;;;;;;;;5102905;27;61921;-78
2022/12/29 06:22:11;;;;;;;;;1.00;0.25;;;;;;;;5103749;27;61946;-78
2022/12/29 06:24:37;;;;;;;;;0.00;0.00;;;;;;;;5103351;27;61828;-78
2022/12/29 06:27:02;;;;;;;;;0.75;0.00;;;;;;;;5102284;27;61743;-78
2022/12/29 06:29:28;;;;;;;;;1.00;0.00;;;;;;;;5100701;27;64828;-79
2022/12/29 06:31:55;;;;;;;;;1.50;0.00;;;;;;;;5103632;27;61905;-78
2022/12/29 06:34:21;;;;;;;;;2.75;0.00;;;;;;;;5103552;27;61787;-78
2022/12/29 06:36:46;;;;;;;;;0.00;0.00;;;;;;;;5102345;27;61837;-78
2022/12/29 06:39:11;;;;;;;;;0.00;0.00;;;;;;;;5102790;27;61860;-78
2022/12/29 06:41:37;;;;;;;;;0.00;0.00;;;;;;;;5101601;27;62390;-78
2022/12/29 06:44:02;;;;;;;;;3.25;0.00;;;;;;;;5101941;27;61790;-78
2022/12/29 06:46:28;;;;;;;;;2.50;0.00;;;;;;;;5103599;27;61768;-78
2022/12/29 06:48:53;;;;;;;;;1.50;0.75;;;;;;;;5100945;27;63737;-78
2022/12/29 06:51:18;;;;;;;;;0.00;0.00;;;;;;;;5101831;27;61946;-78
2022/12/29 06:53:44;;;;;;;;;3.00;0.00;;;;;;;;5101946;27;62085;-78
2022/12/29 06:56:09;;;;;;;;;0.00;0.00;;;;;;;;5101395;27;62084;-78
2022/12/29 06:58:34;;;;;;;;;0.00;0.00;;;;;;;;5102632;27;62713;-78
2022/12/29 07:00:59;;;;;;;;;2.00;0.25;;;;;;;;5101422;27;61857;-78
2022/12/29 07:03:25;;;;;;;;;0.00;0.00;;;;;;;;5103279;27;61779;-78
2022/12/29 07:05:50;;;;;;;;;0.00;0.00;;;;;;;;5103475;27;61756;-78
2022/12/29 07:08:15;;;;;;;;;1.00;0.00;;;;;;;;5099892;27;64679;-78
2022/12/29 07:10:41;;;;;;;;;0.50;0.25;;;;;;;;5102442;27;61819;-78
2022/12/29 07:13:07;;;;;;;;;1.00;0.00;;;;;;;;5102717;27;61799;-78
2022/12/29 07:15:33;;;;;;;;;3.00;1.00;;;;;;;;5101822;27;61719;-78
2022/12/29 07:17:58;;;;;;;;;0.00;0.00;;;;;;;;5102530;27;62643;-78
2022/12/29 07:20:23;;;;;;;;;1.50;0.00;;;;;;;;5100921;27;61816;-78
2022/12/29 07:22:48;;;;;;;;;1.75;0.00;;;;;;;;5102559;27;61806;-78
2022/12/29 07:25:14;;;;;;;;;0.00;0.00;;;;;;;;5102602;27;61709;-79
2022/12/29 07:27:39;;;;;;;;;0.00;0.00;;;;;;;;5102313;27;61701;-78
2022/12/29 07:30:05;;;;;;;;;1.75;0.00;;;;;;;;5102551;27;61800;-78
2022/12/29 07:32:33;;;;;;;;;1.25;0.00;;;;;;;;5102812;27;61705;-78
2022/12/29 07:34:58;;;;;;;;;0.00;0.00;;;;;;;;5102899;27;61722;-78
2022/12/29 07:37:24;;;;;;;;;0.00;0.00;;;;;;;;5100485;27;63597;-78
2022/12/29 07:39:49;;;;;;;;;0.00;0.00;;;;;;;;5101443;27;61792;-78
2022/12/29 07:42:14;;;;;;;;;2.50;0.00;;;;;;;;5106166;27;61858;-78
2022/12/29 07:44:40;;;;;;;;;0.50;0.25;;;;;;;;5104912;27;61827;-78
2022/12/29 07:47:05;;;;;;;;;0.25;0.00;;;;;;;;5105557;27;61788;-78
2022/12/29 07:49:30;;;;;;;;;1.75;0.75;;;;;;;;5104298;27;61936;-78
2022/12/29 07:51:56;;;;;;;;;0.00;0.00;;;;;;;;5105953;27;61785;-78
2022/12/29 07:54:22;;;;;;;;;1.00;0.00;;;;;;;;5104720;27;61877;-78
2022/12/29 07:56:47;;;;;;;;;2.00;0.00;;;;;;;;5104804;27;61815;-78
2022/12/29 07:59:13;;;;;;;;;2.50;0.00;;;;;;;;5104279;27;61835;-78
2022/12/29 08:01:38;;;;;;;;;1.00;1.00;;;;;;;;5105945;27;62075;-78
2022/12/29 08:04:04;;;;;;;;;0.00;0.00;;;;;;;;5105971;27;61903;-78
2022/12/29 08:06:30;;;;;;;;;2.00;0.00;;;;;;;;5104917;27;61852;-78
2022/12/29 08:08:56;;;;;;;;;2.25;0.50;;;;;;;;5103321;27;62178;-78
2022/12/29 08:11:21;;;;;;;;;0.00;0.00;;;;;;;;5105349;27;61581;-78
2022/12/29 08:13:47;;;;;;;;;0.00;0.00;;;;;;;;5106008;27;61892;-78
2022/12/29 08:16:12;;;;;;;;;3.25;1.75;;;;;;;;5103496;27;64860;-78
2022/12/29 08:18:37;;;;;;;;;1.00;0.00;;;;;;;;5105257;27;61862;-78
2022/12/29 08:21:03;;;;;;;;;2.00;1.00;;;;;;;;5105453;27;61807;-78
2022/12/29 08:23:29;;;;;;;;;0.75;0.75;;;;;;;;5104211;27;61687;-78
2022/12/29 08:26:02;;;;;;;;;4.25;1.00;;;;;;;;5104788;27;62891;-78
2022/12/29 08:28:27;;;;;;;;;1.00;0.00;;;;;;;;5105454;27;61929;-78
2022/12/29 08:30:53;;;;;;;;;0.00;0.00;;;;;;;;5104140;27;61867;-78
2022/12/29 08:33:18;;;;;;;;;0.00;0.00;;;;;;;;5105325;27;61824;-78
2022/12/29 08:35:44;;;;;;;;;0.75;0.75;;;;;;;;5104707;27;61843;-78
2022/12/29 08:38:11;;;;;;;;;1.25;0.00;;;;;;;;5105278;27;61643;-78
2022/12/29 08:40:36;;;;;;;;;1.50;0.00;;;;;;;;5104916;27;62053;-78
2022/12/29 08:43:02;;;;;;;;;0.00;0.00;;;;;;;;5105467;27;61856;-78
2022/12/29 08:45:27;;;;;;;;;1.50;0.00;;;;;;;;5102927;27;64898;-78
2022/12/29 08:47:52;;;;;;;;;1.50;0.50;;;;;;;;5105285;27;61749;-79
2022/12/29 08:50:17;;;;;;;;;0.00;0.00;;;;;;;;5104460;27;61789;-79
2022/12/29 08:52:43;;;;;;;;;2.00;1.00;;;;;;;;5103309;27;61898;-78
2022/12/29 08:55:08;;;;;;;;;1.00;1.00;;;;;;;;5104052;27;62529;-78
2022/12/29 08:57:33;;;;;;;;;1.00;1.00;;;;;;;;5104949;27;61907;-78
2022/12/29 08:59:59;;;;;;;;;1.00;0.00;;;;;;;;5103330;27;62205;-78
2022/12/29 09:02:24;;;;;;;;;0.00;0.00;;;;;;;;5103740;27;61775;-78
2022/12/29 09:04:49;;;;;;;;;2.00;0.75;;;;;;;;5102476;27;63562;-78
2022/12/29 09:07:14;;;;;;;;;0.00;0.00;;;;;;;;5103971;27;61835;-78
2022/12/29 09:09:40;;;;;;;;;1.00;0.50;;;;;;;;5104485;27;62087;-78
2022/12/29 09:12:05;;;;;;;;;3.25;1.50;;;;;;;;5104529;27;61821;-79
2022/12/29 09:14:30;;;;;;;;;0.50;0.00;;;;;;;;5104005;27;61680;-78
2022/12/29 09:19:39;;;;;;;;;0.75;0.00;;;;;;;;5104071;27;61693;-78
2022/12/29 09:22:05;;;;;;;;;1.75;1.00;;;;;;;;5103448;27;61748;-79
2022/12/29 09:24:30;;;;;;;;;3.50;2.75;;;;;;;;5103621;27;61750;-79
2022/12/29 09:26:56;;;;;;;;;3.00;1.00;;;;;;;;5104280;27;61718;-78
2022/12/29 09:29:21;;;;;;;;;3.25;1.00;;;;;;;;5104284;27;61857;-78
2022/12/29 09:31:46;;;;;;;;;1.00;1.00;;;;;;;;5104526;27;62057;-79
2022/12/29 09:34:12;;;;;;;;;2.00;1.00;;;;;;;;5102019;27;63642;-78
2022/12/29 09:36:37;;;;;;;;;0.00;0.00;;;;;;;;5104382;27;61774;-78
2022/12/29 09:39:02;;;;;;;;;1.00;0.00;;;;;;;;5104080;27;61927;-78
2022/12/29 09:41:35;;;;;;;;;2.00;1.00;;;;;;;;5104094;27;62411;-79
2022/12/29 09:44:06;;;;;;;;;2.00;1.00;;;;;;;;5103416;27;62845;-79
2022/12/29 09:46:36;;;;;;;;;1.00;0.75;;;;;;;;5104010;27;62149;-79
2022/12/29 09:49:20;;;;;;;;;2.00;1.50;;;;;;;;5103513;27;62297;-78
2022/12/29 09:51:52;;;;;;;;;2.50;1.00;;;;;;;;5102907;27;62148;-78
2022/12/29 09:54:26;;;;;;;;;5.50;2.00;;;;;;;;5103204;27;61956;-79
2022/12/29 09:56:52;;;;;;;;;1.00;1.00;;;;;;;;5103373;27;62110;-79
2022/12/29 09:59:20;;;;;;;;;2.50;0.00;;;;;;;;5104137;27;61796;-79
2022/12/29 10:01:53;;;;;;;;;2.25;1.75;;;;;;;;5104006;27;62174;-78
2022/12/29 10:04:19;;;;;;;;;1.50;0.00;;;;;;;;5101862;27;61909;-78
2022/12/29 10:06:50;;;;;;;;;1.00;1.00;;;;;;;;5103391;27;61706;-78
2022/12/29 10:09:19;;;;;;;;;4.25;1.00;;;;;;;;5103703;27;61843;-78
2022/12/29 10:12:23;;;;;;;;;2.50;1.00;;;;;;;;5102237;27;61855;-79
2022/12/29 10:14:51;;;;;;;;;1.75;1.00;;;;;;;;5062812;28;63728;-79
2022/12/29 10:17:22;;;;;;;;;2.00;1.00;;;;;;;;5063510;28;62905;-78
2022/12/29 10:19:48;;;;;;;;;3.00;1.00;;;;;;;;5063298;28;61931;-78
2022/12/29 10:22:31;;;;;;;;;9.00;1.25;;;;;;;;5080790;28;61758;-79
2022/12/29 10:24:58;;;;;;;;;7.25;1.00;;;;;;;;5079707;28;62645;-79
2022/12/29 10:27:23;;;;;;;;;4.25;1.00;;;;;;;;5080256;28;61738;-79
2022/12/29 10:29:53;;;;;;;;;2.75;1.00;;;;;;;;5080447;28;61791;-79
2022/12/29 10:32:37;;;;;;;;;0.00;0.00;;;;;;;;5063420;28;61950;-79
2022/12/29 10:35:22;;;;;;;;;2.50;0.00;;;;;;;;5079796;28;62036;-79
2022/12/29 10:37:47;;;;;;;;;5.00;2.00;;;;;;;;5063272;28;61789;-79
2022/12/29 10:40:25;;;;;;;;;6.00;1.00;;;;;;;;5063069;28;62086;-79
2022/12/29 10:42:53;;;;;;;;;0.75;0.75;;;;;;;;5080425;28;62093;-79
2022/12/29 10:45:19;;;;;;;;;2.75;1.00;;;;;;;;5088555;27;63006;-78
2022/12/29 10:48:03;;;;;;;;;2.00;1.00;;;;;;;;5103046;27;61887;-78
2022/12/29 10:50:32;;;;;;;;;1.75;0.75;;;;;;;;5102773;27;61716;-78
2022/12/29 10:53:00;;;;;;;;;4.75;1.75;;;;;;;;5103429;27;61692;-79
2022/12/29 10:55:27;;;;;;;;;4.25;2.00;;;;;;;;5102150;27;62074;-78
2022/12/29 10:57:53;;;;;;;;;2.75;2.00;;;;;;;;5103095;27;61737;-79
2022/12/29 11:00:22;;;;;;;;;1.00;1.00;;;;;;;;5101698;27;61733;-79
2022/12/29 11:02:55;;;;;;;;;1.75;1.25;;;;;;;;5103193;27;61964;-79
2022/12/29 11:05:21;;;;;;;;;2.00;0.50;;;;;;;;5100985;27;63728;-79
2022/12/29 11:07:47;;;;;;;;;4.50;3.00;;;;;;;;5101696;27;61723;-79
2022/12/29 11:10:17;;;;;;;;;1.00;0.50;;;;;;;;5101352;27;62134;-78
2022/12/29 11:12:54;;;;;;;;;4.25;3.00;;;;;;;;5102833;27;61748;-79
2022/12/29 11:15:19;;;;;;;;;4.00;1.00;;;;;;;;5103994;27;61685;-78
2022/12/29 11:17:53;;;;;;;;;5.25;1.00;;;;;;;;5104898;27;61962;-79
2022/12/29 11:20:29;;;;;;;;;1.25;1.00;;;;;;;;5106142;27;61813;-78
2022/12/29 11:22:55;;;;;;;;;4.00;0.00;;;;;;;;5104844;27;62094;-79
2022/12/29 11:25:20;;;;;;;;;2.50;1.75;;;;;;;;5105449;27;62591;-78
2022/12/29 11:28:21;;;;;;;;;3.25;1.00;;;;;;;;5106307;27;61733;-78
2022/12/29 11:30:58;;;;;;;;;2.75;1.00;;;;;;;;5083019;28;61795;-79
2022/12/29 11:33:23;;;;;;;;;0.75;0.75;;;;;;;;5083306;27;62477;-79
2022/12/29 11:35:49;;;;;;;;;0.25;0.25;;;;;;;;5065451;28;63593;-78
2022/12/29 11:38:20;;;;;;;;;3.25;1.50;;;;;;;;5083252;28;61801;-79
2022/12/29 11:40:45;;;;;;;;;3.75;1.00;;;;;;;;5082780;28;61951;-78
2022/12/29 11:43:21;;;;;;;;;3.75;3.00;;;;;;;;5083419;28;62123;-78
2022/12/29 11:45:47;;;;;;;;;5.50;2.00;;;;;;;;5065106;28;63564;-79
2022/12/29 11:48:16;;;;;;;;;4.00;1.00;;;;;;;;5083091;28;61969;-79
2022/12/29 11:50:42;;;;;;;;;4.00;1.75;;;;;;;;5065607;28;61815;-79
2022/12/29 11:53:20;;;;;;;;;1.50;0.00;;;;;;;;5083190;28;62043;-79
2022/12/29 11:55:52;;;;;;;;;0.50;0.50;;;;;;;;5081740;28;61801;-79
2022/12/29 11:58:18;;;;;;;;;3.00;0.75;;;;;;;;5082685;28;61897;-78
2022/12/29 12:00:44;;;;;;;;;2.25;0.00;;;;;;;;5082342;28;62013;-79
2022/12/29 12:03:24;;;;;;;;;1.00;0.00;;;;;;;;5066116;28;62162;-79
2022/12/29 12:06:02;;;;;;;;;3.00;0.25;;;;;;;;5103518;27;61878;-79
2022/12/29 12:08:34;;;;;;;;;1.00;1.00;;;;;;;;5104467;27;61748;-79
2022/12/29 12:11:06;;;;;;;;;1.00;0.00;;;;;;;;5103721;27;62014;-79
2022/12/29 12:13:37;;;;;;;;;1.50;1.00;;;;;;;;5104010;27;61875;-78
2022/12/29 12:16:12;;;;;;;;;2.00;1.00;;;;;;;;5104815;27;62861;-78
2022/12/29 12:18:44;;;;;;;;;3.50;1.25;;;;;;;;5105288;27;61677;-78
2022/12/29 12:21:13;;;;;;;;;2.75;1.00;;;;;;;;5104000;27;61988;-79
2022/12/29 12:23:57;;;;;;;;;3.00;0.00;;;;;;;;5104401;27;61764;-79
2022/12/29 12:26:29;;;;;;;;;0.00;0.00;;;;;;;;5103576;27;63187;-79
2022/12/29 12:29:24;;;;;;;;;4.00;1.25;;;;;;;;5104921;27;61654;-79
2022/12/29 12:31:49;;;;;;;;;4.00;2.00;;;;;;;;5100162;27;61750;-79
2022/12/29 12:34:37;;;;;;;;;2.50;0.50;;;;;;;;5105394;27;61917;-79
2022/12/29 12:37:12;;;;;;;;;0.75;0.50;;;;;;;;5104659;27;61783;-79
2022/12/29 12:39:56;;;;;;;;;4.00;1.75;;;;;;;;5104891;27;61912;-78
2022/12/29 12:42:21;;;;;;;;;4.00;1.00;;;;;;;;5103112;27;61714;-78
2022/12/29 12:44:49;;;;;;;;;2.00;1.00;;;;;;;;5105249;27;61740;-79
2022/12/29 12:47:22;;;;;;;;;2.25;0.00;;;;;;;;5104793;27;61871;-79
2022/12/29 12:49:51;;;;;;;;;3.00;0.00;;;;;;;;5104674;27;61805;-79
2022/12/29 12:52:28;;;;;;;;;0.75;0.75;;;;;;;;5104985;27;61817;-78
2022/12/29 12:55:12;;;;;;;;;0.00;0.00;;;;;;;;5104887;27;61896;-79
2022/12/29 12:57:46;;;;;;;;;3.00;0.75;;;;;;;;5102843;27;63674;-79
2022/12/29 13:00:13;;;;;;;;;0.00;0.00;;;;;;;;5103368;27;61815;-79
2022/12/29 13:02:44;;;;;;;;;2.75;1.00;;;;;;;;5105056;27;61745;-79
2022/12/29 13:05:19;;;;;;;;;7.50;2.00;;;;;;;;5103388;27;62002;-79
2022/12/29 13:07:57;;;;;;;;;0.00;0.00;;;;;;;;5103201;27;61817;-79
2022/12/29 13:10:33;;;;;;;;;4.25;0.00;;;;;;;;5103992;27;62003;-79
2022/12/29 13:13:17;;;;;;;;;6.50;3.00;;;;;;;;5102869;27;61785;-79
2022/12/29 13:15:48;;;;;;;;;3.50;1.75;;;;;;;;5104590;27;61875;-79
2022/12/29 13:18:13;;;;;;;;;1.00;1.00;;;;;;;;5103948;27;61909;-78
2022/12/29 13:20:47;;;;;;;;;5.00;2.00;;;;;;;;5104129;27;61848;-79
2022/12/29 13:23:12;;;;;;;;;2.00;0.25;;;;;;;;5102867;27;61720;-78
2022/12/29 13:25:42;;;;;;;;;2.00;1.00;;;;;;;;5104120;27;61808;-78
2022/12/29 13:28:10;;;;;;;;;1.00;1.00;;;;;;;;5103908;27;61866;-78
2022/12/29 13:30:50;;;;;;;;;0.25;0.00;;;;;;;;5102971;27;62017;-79
2022/12/29 13:33:15;;;;;;;;;2.75;1.00;;;;;;;;5104292;27;61804;-79
2022/12/29 13:35:41;;;;;;;;;0.00;0.00;;;;;;;;5104585;27;61800;-78
2022/12/29 13:38:12;;;;;;;;;0.50;0.00;;;;;;;;5101711;27;64939;-79
2022/12/29 13:40:40;;;;;;;;;5.00;1.00;;;;;;;;5103653;27;61801;-78
2022/12/29 13:43:05;;;;;;;;;4.25;1.25;;;;;;;;5102813;27;61919;-79
2022/12/29 13:45:32;;;;;;;;;1.75;0.50;;;;;;;;5104175;27;61872;-79
2022/12/29 13:48:04;;;;;;;;;4.25;1.00;;;;;;;;5102113;27;63734;-79
2022/12/29 13:50:33;;;;;;;;;2.25;1.75;;;;;;;;5103550;27;62016;-79
2022/12/29 13:53:01;;;;;;;;;2.25;1.00;;;;;;;;5102679;27;61785;-79
2022/12/29 13:55:31;;;;;;;;;1.75;1.00;;;;;;;;5103680;27;61831;-78
2022/12/29 13:58:15;;;;;;;;;3.50;1.00;;;;;;;;5103540;27;61724;-79
2022/12/29 14:00:51;;;;;;;;;1.00;1.00;;;;;;;;5103832;27;61749;-79
2022/12/29 14:03:24;;;;;;;;;1.75;1.75;;;;;;;;5103837;27;61857;-78
2022/12/29 14:06:04;;;;;;;;;1.25;0.75;;;;;;;;5104026;27;61744;-79
2022/12/29 14:08:34;;;;;;;;;5.00;1.00;;;;;;;;5102280;27;62242;-79
2022/12/29 14:11:05;;;;;;;;;5.00;1.00;;;;;;;;5103065;27;61844;-79
2022/12/29 14:13:30;;;;;;;;;5.00;1.00;;;;;;;;5103616;27;61739;-79
2022/12/29 14:15:57;;;;;;;;;3.00;1.75;;;;;;;;5103815;27;61910;-78
2022/12/29 14:18:31;;;;;;;;;0.00;0.00;;;;;;;;5103066;27;62668;-79
2022/12/29 14:21:03;;;;;;;;;2.00;0.00;;;;;;;;5103058;27;61885;-79
2022/12/29 14:23:34;;;;;;;;;1.25;1.00;;;;;;;;5101968;27;61951;-78
2022/12/29 14:26:06;;;;;;;;;3.50;1.75;;;;;;;;5101808;27;62068;-79
2022/12/29 14:28:32;;;;;;;;;2.50;2.50;;;;;;;;5102927;27;62884;-78
2022/12/29 14:31:23;;;;;;;;;3.00;3.00;;;;;;;;5102997;27;61895;-79
2022/12/29 14:34:08;;;;;;;;;8.75;3.75;;;;;;;;5102648;27;61713;-79
2022/12/29 14:36:55;;;;;;;;;5.00;3.00;;;;;;;;5103820;27;61718;-79
2022/12/29 14:39:41;;;;;;;;;4.00;2.00;;;;;;;;5100989;27;63836;-79
2022/12/29 14:42:06;;;;;;;;;3.00;2.75;;;;;;;;5101211;27;62031;-79
2022/12/29 14:44:31;;;;;;;;;6.50;1.25;;;;;;;;5101992;27;61760;-79
2022/12/29 14:47:05;;;;;;;;;2.75;1.50;;;;;;;;5102932;27;61670;-78
2022/12/29 14:49:31;;;;;;;;;1.25;1.25;;;;;;;;5101331;27;63931;-79
2022/12/29 14:52:12;;;;;;;;;3.25;2.00;;;;;;;;5106834;27;62118;-79
2022/12/29 14:54:37;;;;;;;;;5.00;1.25;;;;;;;;5106856;27;61763;-79
2022/12/29 14:57:05;;;;;;;;;1.00;1.00;;;;;;;;5105132;27;61993;-79
2022/12/29 14:59:32;;;;;;;;;6.75;2.75;;;;;;;;5105946;27;62660;-78
2022/12/29 15:01:59;;;;;;;;;4.00;2.00;;;;;;;;5106633;27;61848;-79
2022/12/29 15:04:26;;;;;;;;;2.50;1.50;;;;;;;;5106499;27;61979;-78
2022/12/29 15:06:52;;;;;;;;;3.00;1.00;;;;;;;;5105722;27;61928;-78
2022/12/29 15:09:21;;;;;;;;;3.00;2.50;;;;;;;;5104429;27;63880;-79
2022/12/29 15:11:53;;;;;;;;;4.75;3.00;;;;;;;;5105975;27;61735;-79
2022/12/29 15:14:28;;;;;;;;;3.00;2.00;;;;;;;;5105113;27;61843;-79
2022/12/29 15:16:53;;;;;;;;;3.00;3.00;;;;;;;;5105355;27;62115;-79
2022/12/29 15:19:22;;;;;;;;;3.75;3.00;;;;;;;;5105605;27;61859;-78
2022/12/29 15:21:48;;;;;;;;;6.00;3.00;;;;;;;;5106085;27;61714;-78
2022/12/29 15:24:14;;;;;;;;;4.50;1.00;;;;;;;;5104867;27;61789;-79
2022/12/29 15:26:40;;;;;;;;;2.25;2.25;;;;;;;;5104849;27;61746;-79
2022/12/29 15:29:26;;;;;;;;;6.50;2.50;;;;;;;;5105742;27;62057;-79
2022/12/29 15:31:51;;;;;;;;;4.25;3.75;;;;;;;;5104658;27;61811;-79
2022/12/29 15:34:20;;;;;;;;;4.00;4.00;;;;;;;;5104473;27;61891;-79